Archival Weather

Heathrow

London, United Kingdom (EGLL)

Report from: Sunday, March 19, 2023 5:20 AM GMT
Current time: Tuesday, July 16, 2024 5:08 PM BST

Current weather – Weather history – Daily summaries
Weather forecast

Temperature6.0°C (42.8°F)
Wind chill4.0°C (39.3°F)
Dew point4.0°C (39.2°F)
Winds 5 kts (2.6 m/s, 5.8 mph) West-Northwest (300°)
Visibility6.2 mi. (10 km)
Clouds Sky clear
Altimeter29.91 in.Hg (1013 mB)
Relative humidity87 %
Density altitude-958 ft. (-292 m)
Remarks Fully automated report
Corrected report
No clouds detected
No significant changes expected in the next two hours
Flight conditions Visual Meteorological Conditions
Raw dataCOR EGLL 190520Z AUTO 30005KT 9999 NCD 06/04 Q1013 NOSIG
An error has occurred. This application may no longer respond until reloaded. Reload 🗙